Time;durP1;ratioP1;P1;durP2;ratioP2;P2;SDS_P1;SDS_P2;PMS_P1;PMS_P2;Temp;Humidity;BMP_temperature;BMP_pressure;BME280_temperature;BME280_humidity;BME280_pressure;Samples;Min_cycle;Max_cycle;Signal;HPM_P1;HPM_P2
2022/06/02 00:01:19;;;;;;;7.65;3.28;;;;;;;15.90;69.07;101559.63;7384734;19;19994;-69
2022/06/02 00:04:08;;;;;;;9.63;4.25;;;;;;;15.88;68.05;101559.78;7385400;19;20002;-68
2022/06/02 00:06:39;;;;;;;6.40;3.08;;;;;;;15.85;68.55;101567.28;7386625;19;20018;-69
2022/06/02 00:09:43;;;;;;;6.90;3.00;;;;;;;15.84;68.62;101571.75;7386423;19;20006;-70
2022/06/02 00:12:29;;;;;;;5.97;2.88;;;;;;;15.82;69.30;101566.59;7388323;19;20739;-69
2022/06/02 00:15:07;;;;;;;7.78;3.17;;;;;;;15.82;69.65;101571.06;7389044;19;20014;-67
2022/06/02 00:18:16;;;;;;;17.48;10.50;;;;;;;15.83;71.69;101570.91;7389014;19;20356;-69
2022/06/02 00:20:52;;;;;;;7.60;3.58;;;;;;;15.80;70.29;101565.94;7388274;19;20013;-67
2022/06/02 00:23:39;;;;;;;6.32;2.45;;;;;;;15.80;70.04;101573.06;7387116;19;20341;-69
2022/06/02 00:26:33;;;;;;;4.15;2.28;;;;;;;15.75;70.23;101562.13;7387830;19;20002;-69
2022/06/02 00:29:18;;;;;;;9.07;4.05;;;;;;;15.69;70.49;101565.47;7385815;19;20032;-67
2022/06/02 00:31:57;;;;;;;7.05;3.50;;;;;;;15.65;70.52;101569.44;7387413;19;20018;-68
2022/06/02 00:34:42;;;;;;;5.63;3.35;;;;;;;15.64;70.37;101565.97;7387079;19;20417;-69
2022/06/02 00:37:16;;;;;;;6.03;3.55;;;;;;;15.69;75.70;101574.25;7387603;19;20013;-70
2022/06/02 00:39:46;;;;;;;10.35;5.30;;;;;;;15.71;77.28;101568.75;7388665;19;20006;-68
2022/06/02 00:42:34;;;;;;;8.52;4.82;;;;;;;15.69;74.32;101566.31;7387812;19;20472;-68
2022/06/02 00:45:05;;;;;;;7.82;4.60;;;;;;;15.67;73.63;101570.94;7388012;19;20437;-68
2022/06/02 00:47:47;;;;;;;7.10;3.85;;;;;;;15.67;72.54;101559.50;7383439;19;20011;-68
2022/06/02 00:50:24;;;;;;;6.70;3.60;;;;;;;15.62;71.19;101564.47;7387876;19;20466;-68
2022/06/02 00:52:57;;;;;;;6.95;4.53;;;;;;;15.58;71.36;101563.97;7386152;19;20015;-69
2022/06/02 00:58:56;;;;;;;4.38;3.10;;;;;;;15.59;71.84;101564.81;7386260;19;20746;-68
2022/06/02 01:01:34;;;;;;;4.22;2.80;;;;;;;15.58;70.52;101565.81;7387265;19;20379;-66
2022/06/02 01:04:23;;;;;;;5.03;2.80;;;;;;;15.55;69.65;101566.94;7383145;19;20026;-70
2022/06/02 01:07:26;;;;;;;6.70;2.80;;;;;;;15.52;69.44;101564.66;7384483;19;20017;-67
2022/06/02 01:10:02;;;;;;;5.97;2.85;;;;;;;15.52;69.76;101558.50;7387419;19;20018;-67
2022/06/02 01:12:43;;;;;;;9.57;3.28;;;;;;;15.50;70.02;101563.09;7387261;19;20012;-67
2022/06/02 01:15:14;;;;;;;5.60;2.85;;;;;;;15.47;70.01;101569.59;7383866;19;20007;-67
2022/06/02 01:18:18;;;;;;;8.60;3.55;;;;;;;15.44;70.05;101567.25;7384787;19;20039;-68
2022/06/02 01:20:53;;;;;;;5.22;3.50;;;;;;;15.43;70.44;101572.75;7380978;19;20014;-68
2022/06/02 01:23:38;;;;;;;5.80;3.45;;;;;;;15.40;70.57;101565.94;7387800;19;20017;-68
2022/06/02 01:26:24;;;;;;;7.82;3.95;;;;;;;15.37;70.55;101568.94;7385267;19;20011;-68
2022/06/02 01:29:28;;;;;;;8.43;3.92;;;;;;;15.34;70.60;101569.25;7386550;19;20475;-69
2022/06/02 01:31:58;;;;;;;6.28;3.75;;;;;;;15.30;70.67;101565.25;7383685;19;20010;-68
2022/06/02 01:34:28;;;;;;;8.52;4.00;;;;;;;15.24;71.07;101569.41;7386295;19;20025;-70
2022/06/02 01:37:23;;;;;;;9.48;4.43;;;;;;;15.21;71.55;101568.91;7387871;19;20030;-68
2022/06/02 01:40:08;;;;;;;7.15;3.83;;;;;;;15.19;71.73;101568.22;7384773;19;20007;-69
2022/06/02 01:43:03;;;;;;;6.75;3.83;;;;;;;15.14;71.55;101565.25;7386941;19;20077;-67
2022/06/02 01:45:45;;;;;;;9.38;5.10;;;;;;;15.09;72.84;101568.41;7382512;19;20497;-70
2022/06/02 01:48:33;;;;;;;7.15;4.20;;;;;;;15.04;72.58;101575.19;7383500;19;20017;-66
2022/06/02 01:51:05;;;;;;;9.05;4.10;;;;;;;14.99;72.67;101568.56;7385346;19;20006;-69
2022/06/02 01:53:38;;;;;;;;;;;;;;;14.95;72.85;101582.28;7384084;19;20006;-68
2022/06/02 01:56:20;;;;;;;10.40;6.50;;;;;;;14.92;73.34;101577.31;7379905;19;20511;-68
2022/06/02 01:59:01;;;;;;;13.10;5.35;;;;;;;14.92;73.56;101572.03;7386391;19;20007;-70
2022/06/02 02:01:50;;;;;;;8.85;4.40;;;;;;;14.91;72.94;101578.31;7386219;19;20448;-68
2022/06/02 02:04:48;;;;;;;7.32;4.20;;;;;;;14.87;73.37;101569.88;7381685;19;20132;-66
2022/06/02 02:07:33;;;;;;;9.10;6.00;;;;;;;14.86;73.62;101570.84;7382306;19;20014;-67
2022/06/02 02:10:03;;;;;;;8.10;4.68;;;;;;;14.83;73.66;101570.34;7383387;19;20013;-67
2022/06/02 02:12:40;;;;;;;10.88;4.97;;;;;;;14.82;73.68;101566.88;7382550;19;20013;-68
2022/06/02 02:15:20;;;;;;;7.15;4.75;;;;;;;14.80;73.57;101562.72;7384418;19;20011;-66
2022/06/02 02:17:57;;;;;;;9.43;4.80;;;;;;;14.81;74.03;101567.03;7383226;19;20041;-68
2022/06/02 02:20:55;;;;;;;8.02;4.95;;;;;;;14.77;74.22;101571.84;7384997;19;20070;-66
2022/06/02 02:23:42;;;;;;;10.35;5.53;;;;;;;14.74;74.02;101574.78;7384913;19;20017;-68
2022/06/02 02:26:15;;;;;;;8.13;5.20;;;;;;;14.71;74.34;101567.16;7384585;19;20017;-68
2022/06/02 02:28:55;;;;;;;11.40;7.57;;;;;;;14.69;74.81;101568.31;7384696;19;20003;-70
2022/06/02 02:31:39;;;;;;;8.85;5.15;;;;;;;14.69;75.08;101563.84;7385029;19;20352;-69
2022/06/02 02:34:25;;;;;;;9.63;5.22;;;;;;;14.68;74.60;101562.19;7383250;19;20015;-69
2022/06/02 02:37:14;;;;;;;8.52;5.20;;;;;;;14.69;74.55;101568.31;7383155;19;20010;-69
2022/06/02 02:40:10;;;;;;;8.98;5.53;;;;;;;14.62;75.17;101564.66;7384421;19;20027;-67
2022/06/02 02:42:51;;;;;;;10.13;6.13;;;;;;;14.57;75.64;101572.25;7382128;19;20465;-69
2022/06/02 02:45:34;;;;;;;10.38;5.63;;;;;;;14.55;75.91;101570.59;7383975;19;20007;-69
2022/06/02 02:48:14;;;;;;;13.60;6.53;;;;;;;14.52;75.75;101570.09;7377218;19;20010;-67
2022/06/02 02:50:55;;;;;;;10.65;6.50;;;;;;;14.54;76.61;101570.75;7383838;19;20024;-69
2022/06/02 02:53:37;;;;;;;12.05;6.63;;;;;;;14.54;76.22;101571.56;7383603;19;20022;-70
2022/06/02 02:56:22;;;;;;;12.13;6.13;;;;;;;14.53;76.17;101567.25;7382921;19;20089;-70
2022/06/02 02:59:17;;;;;;;14.30;7.90;;;;;;;14.50;77.13;101572.06;7381519;19;20475;-68
2022/06/02 03:02:02;;;;;;;10.88;6.60;;;;;;;14.48;76.91;101563.44;7378518;19;20022;-67
2022/06/02 03:04:57;;;;;;;12.30;6.82;;;;;;;14.44;77.16;101568.22;7382751;19;20018;-66
2022/06/02 03:07:24;;;;;;;11.75;6.47;;;;;;;14.45;77.51;101569.06;7379395;19;20015;-68
2022/06/02 03:09:52;;;;;;;16.83;9.70;;;;;;;14.37;77.98;101564.56;7380255;19;20011;-68
2022/06/02 03:13:09;;;;;;;14.32;7.28;;;;;;;14.38;78.45;101555.63;7383302;19;20007;-68
2022/06/02 03:15:56;;;;;;;15.02;7.45;;;;;;;14.35;78.28;101561.22;7378560;19;21603;-70
2022/06/02 03:18:32;;;;;;;12.82;7.45;;;;;;;14.34;78.57;101558.72;7381044;19;20071;-68
2022/06/02 03:21:07;;;;;;;17.17;7.85;;;;;;;14.32;79.00;101558.91;7383877;19;20599;-68
2022/06/02 03:23:55;;;;;;;12.85;7.65;;;;;;;14.30;79.26;101560.88;7383704;19;20353;-67
2022/06/02 03:26:47;;;;;;;13.80;7.20;;;;;;;14.26;79.48;101559.53;7381638;19;20025;-67
2022/06/02 03:29:29;;;;;;;14.98;8.00;;;;;;;14.21;79.44;101564.47;7379379;19;20437;-69
2022/06/02 03:32:35;;;;;;;15.85;8.05;;;;;;;14.19;80.04;101569.06;7381637;19;20021;-69
2022/06/02 03:35:37;;;;;;;14.43;7.80;;;;;;;14.18;79.95;101562.13;7383920;19;20078;-68
2022/06/02 03:38:22;;;;;;;11.95;7.55;;;;;;;14.18;79.71;101561.28;7381957;19;20545;-67
2022/06/02 03:41:09;;;;;;;13.77;8.57;;;;;;;14.16;80.70;101565.94;7382154;19;20126;-70
2022/06/02 03:43:53;;;;;;;15.88;8.20;;;;;;;14.15;80.55;101562.44;7381281;19;20487;-67
2022/06/02 03:46:38;;;;;;;13.25;8.02;;;;;;;14.13;80.58;101556.47;7380138;19;20048;-66
2022/06/02 03:49:29;;;;;;;18.92;9.65;;;;;;;14.12;80.94;101560.09;7381143;19;20018;-68
2022/06/02 03:52:23;;;;;;;13.60;8.48;;;;;;;14.08;81.18;101551.66;7383127;19;20026;-68
2022/06/02 03:55:18;;;;;;;15.63;8.55;;;;;;;14.04;81.63;101560.06;7382498;19;20014;-68
2022/06/02 03:58:02;;;;;;;18.00;9.57;;;;;;;13.98;81.76;101552.75;7381685;19;20015;-68
2022/06/02 04:00:47;;;;;;;15.20;8.65;;;;;;;13.96;82.33;101560.88;7380797;19;20364;-67
2022/06/02 04:03:31;;;;;;;16.67;9.02;;;;;;;13.95;82.34;101559.19;7382716;19;20010;-67
2022/06/02 04:06:20;;;;;;;15.32;8.18;;;;;;;13.94;82.22;101568.13;7377495;19;20007;-67
2022/06/02 04:08:59;;;;;;;20.67;9.93;;;;;;;13.99;82.56;101559.72;7379801;19;20352;-67
2022/06/02 04:14:47;;;;;;;18.33;10.90;;;;;;;13.93;82.40;101569.09;7380774;19;20391;-68
2022/06/02 04:17:58;;;;;;;19.70;9.30;;;;;;;13.92;82.72;101564.78;7380816;19;20101;-69
2022/06/02 04:20:44;;;;;;;17.73;8.85;;;;;;;13.93;82.19;101565.63;7376963;19;20014;-68
2022/06/02 04:23:32;;;;;;;22.38;11.63;;;;;;;13.92;82.39;101569.25;7381227;19;20595;-69
2022/06/02 04:26:36;;;;;;;17.17;9.15;;;;;;;13.90;82.67;101573.88;7385714;19;20011;-68
2022/06/02 04:29:21;;;;;;;14.15;8.63;;;;;;;13.89;82.06;101577.50;7388021;19;20440;-68
2022/06/02 04:32:25;;;;;;;14.70;9.10;;;;;;;13.89;82.48;101582.78;7385945;19;20055;-67
2022/06/02 04:35:15;;;;;;;13.48;8.32;;;;;;;13.87;82.35;101577.66;7385838;19;20030;-69
2022/06/02 04:38:11;;;;;;;14.35;8.40;;;;;;;13.86;82.55;101581.31;7388388;19;20512;-67
2022/06/02 04:40:53;;;;;;;14.80;9.20;;;;;;;13.83;82.75;101578.13;7386984;19;20504;-68
2022/06/02 04:43:26;;;;;;;19.58;9.32;;;;;;;13.83;82.72;101580.75;7387642;19;20092;-67
2022/06/02 04:45:58;;;;;;;16.40;9.68;;;;;;;13.82;83.33;101582.56;7387131;19;20431;-69
2022/06/02 04:48:47;;;;;;;13.98;8.30;;;;;;;13.82;83.40;101593.16;7385752;19;20423;-67
2022/06/02 04:51:26;;;;;;;15.35;8.52;;;;;;;13.86;82.71;101588.41;7384909;19;20628;-70
2022/06/02 04:54:02;;;;;;;25.92;15.18;;;;;;;13.89;83.60;101590.72;7387717;19;20480;-68
2022/06/02 04:56:51;;;;;;;16.55;9.60;;;;;;;13.90;83.51;101592.41;7386233;19;20007;-66
2022/06/02 04:59:35;;;;;;;19.33;9.05;;;;;;;13.90;82.90;101597.69;7386377;19;20033;-67
2022/06/02 05:02:08;;;;;;;23.38;13.90;;;;;;;13.90;84.04;101595.03;7387534;19;20010;-69
2022/06/02 05:05:12;;;;;;;16.95;9.07;;;;;;;13.95;83.42;101592.75;7386780;19;20024;-67
2022/06/02 05:07:48;;;;;;;14.82;8.85;;;;;;;13.97;83.00;101590.78;7383987;19;20507;-67
2022/06/02 05:10:24;;;;;;;17.20;9.65;;;;;;;14.00;83.61;101596.59;7386382;19;20007;-67
2022/06/02 05:13:30;;;;;;;13.00;8.23;;;;;;;14.05;82.77;101604.91;7384837;19;20029;-67
2022/06/02 05:16:23;;;;;;;16.70;9.32;;;;;;;14.04;82.74;101600.59;7386881;19;20007;-67
2022/06/02 05:19:28;;;;;;;17.50;9.25;;;;;;;14.07;83.47;101602.09;7385085;19;20424;-66
2022/06/02 05:22:20;;;;;;;16.17;8.95;;;;;;;14.07;82.76;101608.22;7386038;19;20013;-67
2022/06/02 05:25:12;;;;;;;18.98;10.10;;;;;;;14.05;82.67;101610.19;7386965;19;20029;-68
2022/06/02 05:27:54;;;;;;;15.75;9.40;;;;;;;14.12;83.48;101613.03;7381599;19;20013;-67
2022/06/02 05:30:34;;;;;;;16.25;9.70;;;;;;;14.15;82.85;101618.03;7385128;19;20353;-68
2022/06/02 05:33:23;;;;;;;14.82;8.73;;;;;;;14.16;82.79;101617.06;7383410;19;20006;-68
2022/06/02 05:36:10;;;;;;;19.95;10.15;;;;;;;14.24;84.47;101626.84;7385151;19;20341;-67
2022/06/02 05:38:42;;;;;;;14.93;8.93;;;;;;;14.29;83.33;101621.91;7386108;19;20010;-67
2022/06/02 05:41:26;;;;;;;16.13;9.48;;;;;;;14.31;83.02;101626.06;7384693;19;20014;-66
2022/06/02 05:44:22;;;;;;;17.73;9.23;;;;;;;14.37;83.79;101624.66;7384972;19;20015;-68
2022/06/02 05:47:05;;;;;;;16.30;9.40;;;;;;;14.43;82.97;101624.00;7386119;19;20010;-67
2022/06/02 05:50:18;;;;;;;15.52;10.07;;;;;;;14.44;81.96;101620.34;7386166;19;20019;-67
2022/06/02 05:53:06;;;;;;;19.13;9.68;;;;;;;14.48;82.37;101630.47;7383767;19;20009;-69
2022/06/02 05:56:03;;;;;;;19.42;9.80;;;;;;;14.51;82.43;101627.53;7384448;19;20028;-69
2022/06/02 05:59:14;;;;;;;17.77;10.00;;;;;;;14.57;82.07;101638.47;7385690;19;20267;-69
2022/06/02 06:02:07;;;;;;;16.17;10.10;;;;;;;14.62;81.93;101630.88;7380703;19;20440;-69
2022/06/02 06:04:40;;;;;;;17.80;10.02;;;;;;;14.66;82.07;101625.09;7382582;19;20458;-70
2022/06/02 06:07:45;;;;;;;18.58;9.95;;;;;;;14.76;82.27;101630.28;7384460;19;20344;-69
2022/06/02 06:10:30;;;;;;;15.15;9.18;;;;;;;14.78;82.22;101634.41;7382092;19;20002;-70
2022/06/02 06:13:18;;;;;;;19.08;10.13;;;;;;;14.84;82.35;101630.28;7384387;19;20033;-67
2022/06/02 06:16:10;;;;;;;17.75;9.43;;;;;;;14.91;82.28;101634.81;7384461;19;20133;-67
2022/06/02 06:19:05;;;;;;;13.80;8.15;;;;;;;14.98;82.14;101633.16;7383955;19;20090;-67
2022/06/02 06:22:02;;;;;;;17.13;8.63;;;;;;;15.06;81.66;101634.16;7384407;19;20710;-69
2022/06/02 06:24:52;;;;;;;15.45;7.60;;;;;;;15.15;82.09;101634.03;7383005;19;20366;-66
2022/06/02 06:27:42;;;;;;;11.00;7.00;;;;;;;15.18;80.10;101630.22;7383057;19;20401;-68
2022/06/02 06:30:44;;;;;;;9.35;6.60;;;;;;;15.25;79.64;101631.22;7383115;19;20010;-68
2022/06/02 06:33:29;;;;;;;12.77;7.63;;;;;;;15.31;79.41;101631.41;7382318;19;20086;-70
2022/06/02 06:36:03;;;;;;;13.15;6.82;;;;;;;15.35;78.92;101634.56;7382672;19;20017;-66
2022/06/02 06:38:54;;;;;;;14.02;6.93;;;;;;;15.39;78.61;101639.34;7383861;19;20011;-68
2022/06/02 06:41:41;;;;;;;9.18;5.90;;;;;;;15.45;77.99;101648.50;7382061;19;20099;-67
2022/06/02 06:44:36;;;;;;;12.65;6.10;;;;;;;15.49;77.67;101647.16;7382456;19;20046;-68
2022/06/02 06:47:15;;;;;;;11.50;5.72;;;;;;;15.54;77.30;101638.75;7381849;19;20107;-69
2022/06/02 06:50:16;;;;;;;9.75;4.93;;;;;;;15.55;76.50;101638.56;7383396;19;20468;-69
2022/06/02 06:52:46;;;;;;;9.23;5.90;;;;;;;15.59;76.44;101641.75;7382751;19;20015;-68
2022/06/02 06:55:36;;;;;;;10.13;6.00;;;;;;;15.63;76.17;101633.28;7383718;19;20341;-68
2022/06/02 06:58:34;;;;;;;10.45;5.47;;;;;;;15.65;75.04;101639.25;7382400;19;20636;-67
2022/06/02 07:01:25;;;;;;;15.90;8.40;;;;;;;15.69;75.78;101653.88;7382244;19;20068;-69
2022/06/02 07:04:10;;;;;;;10.38;4.90;;;;;;;15.74;75.78;101650.72;7382236;19;20019;-68
2022/06/02 07:06:49;;;;;;;9.18;5.47;;;;;;;15.76;75.49;101651.34;7383654;19;20026;-68
2022/06/02 07:10:09;;;;;;;9.95;5.18;;;;;;;15.79;75.40;101648.38;7380567;19;20014;-66
2022/06/02 07:12:50;;;;;;;9.23;4.88;;;;;;;15.86;75.66;101638.75;7379673;19;20070;-68
2022/06/02 07:16:03;;;;;;;11.90;5.73;;;;;;;15.92;75.28;101653.19;7383428;19;20010;-69
2022/06/02 07:18:54;;;;;;;9.50;4.93;;;;;;;15.95;75.20;101645.69;7383153;19;20263;-68
2022/06/02 07:21:27;;;;;;;10.68;7.10;;;;;;;16.00;75.71;101653.97;7379871;19;20333;-69
2022/06/02 07:24:09;;;;;;;9.82;5.60;;;;;;;16.07;74.94;101657.63;7382057;19;20028;-68
2022/06/02 07:26:54;;;;;;;9.98;4.65;;;;;;;16.11;74.21;101655.47;7381701;19;20026;-68
2022/06/02 07:29:49;;;;;;;7.90;4.38;;;;;;;16.15;73.88;101654.16;7380291;19;20097;-69
2022/06/02 07:32:43;;;;;;;9.75;5.53;;;;;;;16.23;74.08;101654.97;7382872;19;20488;-69
2022/06/02 07:35:43;;;;;;;8.10;4.60;;;;;;;16.29;72.48;101660.59;7380444;19;20017;-69
2022/06/02 07:38:34;;;;;;;6.15;3.85;;;;;;;16.35;72.17;101663.41;7383465;19;20038;-68
2022/06/02 07:41:20;;;;;;;6.82;4.30;;;;;;;16.48;71.16;101663.69;7382241;19;20010;-68
2022/06/02 07:44:06;;;;;;;6.97;3.78;;;;;;;16.73;71.41;101668.97;7381690;19;20018;-68
2022/06/02 07:46:47;;;;;;;5.97;4.05;;;;;;;16.98;70.47;101678.47;7381017;19;20433;-67
2022/06/02 07:49:41;;;;;;;11.80;7.05;;;;;;;17.06;69.21;101667.81;7379167;19;20021;-69
2022/06/02 07:52:21;;;;;;;5.95;3.92;;;;;;;17.08;69.36;101673.78;7384547;19;20122;-67
2022/06/02 07:55:39;;;;;;;7.03;3.92;;;;;;;17.09;68.06;101678.09;7381229;19;20046;-68
2022/06/02 07:58:21;;;;;;;5.32;3.28;;;;;;;17.05;67.83;101674.97;7384945;19;20011;-70
2022/06/02 08:01:00;;;;;;;5.30;3.53;;;;;;;17.07;69.02;101669.47;7389184;19;20025;-69
2022/06/02 08:04:01;;;;;;;6.13;3.80;;;;;;;17.05;68.32;101667.00;7387139;19;20466;-67
2022/06/02 08:06:53;;;;;;;8.40;3.35;;;;;;;17.06;67.81;101673.16;7385987;19;20018;-70
2022/06/02 08:09:38;;;;;;;7.82;4.30;;;;;;;17.04;69.19;101673.31;7382681;19;20452;-68
2022/06/02 08:12:29;;;;;;;8.40;3.55;;;;;;;17.07;67.93;101664.97;7385485;19;20006;-69
2022/06/02 08:15:37;;;;;;;6.82;4.05;;;;;;;17.09;68.36;101664.81;7388905;19;20070;-69
2022/06/02 08:18:20;;;;;;;5.30;3.20;;;;;;;17.03;67.82;101666.31;7390415;19;20368;-67
2022/06/02 08:21:15;;;;;;;8.27;3.40;;;;;;;17.04;67.90;101665.34;7386233;19;20002;-68
2022/06/02 08:24:07;;;;;;;7.50;3.92;;;;;;;17.05;68.51;101668.81;7387735;19;20038;-68
2022/06/02 08:27:01;;;;;;;7.07;4.15;;;;;;;17.07;68.36;101662.31;7387150;19;20007;-68
2022/06/02 08:29:56;;;;;;;7.20;3.65;;;;;;;17.15;68.33;101668.59;7386697;19;20086;-67
2022/06/02 08:32:52;;;;;;;5.93;3.80;;;;;;;17.19;68.23;101669.91;7390449;19;20424;-67
2022/06/02 08:35:44;;;;;;;5.55;3.03;;;;;;;17.23;68.09;101673.84;7388763;19;20348;-67
2022/06/02 08:38:22;;;;;;;6.00;3.88;;;;;;;17.27;68.63;101665.34;7388218;19;20406;-69
2022/06/02 08:40:59;;;;;;;5.10;3.17;;;;;;;17.30;68.26;101666.84;7388954;19;20578;-68
2022/06/02 08:43:48;;;;;;;5.22;2.90;;;;;;;17.33;67.40;101674.47;7389817;19;20081;-70
2022/06/02 08:46:34;;;;;;;6.18;3.38;;;;;;;17.37;67.76;101665.16;7384566;19;20011;-69
2022/06/02 08:49:16;;;;;;;5.90;2.58;;;;;;;17.37;66.32;101665.16;7383493;19;20206;-67
2022/06/02 08:52:20;;;;;;;7.00;4.03;;;;;;;17.42;67.51;101665.44;7387539;19;20026;-69
2022/06/02 08:55:28;;;;;;;9.23;4.55;;;;;;;17.49;67.11;101661.88;7388767;19;20746;-67
2022/06/02 08:58:39;;;;;;;;;;;;;;;17.58;66.77;101662.66;7385322;19;20015;-68
2022/06/02 09:01:51;;;;;;;7.95;2.17;;;;;;;17.65;66.68;101673.44;7386211;19;19915;-68
2022/06/02 09:05:06;;;;;;;5.20;2.63;;;;;;;17.65;66.45;101671.63;7389980;19;20036;-68
2022/06/02 09:07:48;;;;;;;;;;;;;;;17.68;64.44;101681.91;7387836;19;20007;-69
2022/06/02 09:10:34;;;;;;;6.82;2.55;;;;;;;17.64;64.32;101679.78;7388634;19;19919;-69
2022/06/02 09:13:42;;;;;;;4.70;2.47;;;;;;;17.65;63.89;101673.44;7385251;19;20121;-67
2022/06/02 09:16:19;;;;;;;3.50;2.03;;;;;;;17.63;64.47;101670.97;7387932;19;20006;-68
2022/06/02 09:19:07;;;;;;;2.47;1.40;;;;;;;17.62;64.08;101682.63;7386300;19;20010;-67
2022/06/02 09:21:57;;;;;;;2.88;1.60;;;;;;;17.62;64.43;101673.81;7387156;19;20014;-69
2022/06/02 09:24:47;;;;;;;3.00;1.60;;;;;;;17.62;64.46;101672.00;7384044;19;20043;-67
2022/06/02 09:27:35;;;;;;;3.03;1.60;;;;;;;17.62;63.70;101673.81;7387789;19;20014;-70
2022/06/02 09:30:17;;;;;;;3.40;2.28;;;;;;;17.61;64.39;101674.81;7383548;19;20528;-68
2022/06/02 09:32:47;;;;;;;2.22;1.35;;;;;;;17.62;64.01;101669.31;7387933;19;20026;-68
2022/06/02 09:35:23;;;;;;;2.83;1.67;;;;;;;17.78;61.71;101676.34;7385922;19;20567;-67
2022/06/02 09:38:41;;;;;;;2.67;1.17;;;;;;;18.00;58.51;101672.81;7387215;19;20015;-68
2022/06/02 09:41:30;;;;;;;2.58;1.60;;;;;;;18.17;59.63;101671.66;7388267;19;20021;-70
2022/06/02 09:47:46;;;;;;;2.65;0.80;;;;;;;18.54;56.83;101667.31;7383218;19;20003;-67
2022/06/02 09:50:25;;;;;;;;;;;;;;;18.66;53.51;101663.16;7386866;19;20662;-71
2022/06/02 09:53:41;;;;;;;1.75;0.70;;;;;;;18.72;52.47;101663.25;7383090;19;20018;-69
2022/06/02 10:04:53;;;;;;;3.17;1.00;;;;;;;18.66;55.58;101645.31;7386701;19;20017;-69
2022/06/02 10:08:07;;;;;;;1.95;0.90;;;;;;;18.63;56.19;101645.72;7383737;19;20007;-69
2022/06/02 10:10:55;;;;;;;4.50;1.20;;;;;;;18.80;57.54;101649.81;7384645;19;20002;-70
2022/06/02 10:13:45;;;;;;;2.10;0.70;;;;;;;18.95;55.53;101640.94;7380686;19;20018;-68
2022/06/02 10:16:36;;;;;;;2.15;0.73;;;;;;;19.10;54.47;101647.91;7385643;19;20412;-68
2022/06/02 10:19:20;;;;;;;1.73;0.90;;;;;;;19.25;53.20;101642.50;7380570;19;20014;-68
2022/06/02 10:22:12;;;;;;;5.63;1.27;;;;;;;19.37;52.87;101648.19;7386182;19;20013;-68
2022/06/02 10:24:51;;;;;;;1.50;0.73;;;;;;;19.43;52.81;101636.75;7384738;19;20794;-67
2022/06/02 10:27:47;;;;;;;1.83;0.70;;;;;;;19.57;53.68;101644.72;7384469;19;20011;-67
2022/06/02 10:30:58;;;;;;;2.45;1.00;;;;;;;19.66;52.91;101640.06;7377478;19;20010;-67
2022/06/02 10:34:03;;;;;;;2.78;1.13;;;;;;;19.79;50.94;101631.34;7383493;19;20014;-68
2022/06/02 10:36:52;;;;;;;2.13;1.00;;;;;;;19.70;51.54;101633.34;7382127;19;20085;-68
2022/06/02 10:39:22;;;;;;;2.38;1.02;;;;;;;19.57;51.95;101641.22;7379458;19;21512;-68
2022/06/02 10:42:03;;;;;;;1.92;1.10;;;;;;;19.40;52.80;101632.59;7383438;19;20440;-68
2022/06/02 10:44:47;;;;;;;4.00;1.20;;;;;;;19.27;53.33;101629.00;7384901;19;20010;-68
2022/06/02 10:47:42;;;;;;;5.40;1.52;;;;;;;19.26;54.91;101627.34;7382835;19;20523;-70
2022/06/02 10:50:25;;;;;;;2.90;1.17;;;;;;;19.32;53.02;101634.59;7381690;19;20006;-68
2022/06/02 10:53:13;;;;;;;2.72;1.10;;;;;;;19.37;51.98;101632.19;7386893;19;20515;-69
2022/06/02 10:55:51;;;;;;;2.20;0.82;;;;;;;19.34;51.72;101640.56;7384100;19;20017;-68
2022/06/02 10:58:40;;;;;;;1.35;0.93;;;;;;;19.32;52.56;101634.59;7381945;19;20002;-69
2022/06/02 11:01:12;;;;;;;2.78;1.15;;;;;;;19.27;52.55;101626.31;7383376;19;20014;-68
2022/06/02 11:04:29;;;;;;;1.70;0.95;;;;;;;19.16;51.30;101630.31;7382925;19;20029;-68
2022/06/02 11:07:08;;;;;;;3.88;1.00;;;;;;;19.17;51.76;101621.31;7383764;19;20011;-68
2022/06/02 11:09:57;;;;;;;2.33;0.80;;;;;;;19.25;51.41;101617.69;7383068;19;20011;-68
2022/06/02 11:12:54;;;;;;;3.05;0.90;;;;;;;19.35;50.10;101620.88;7383179;19;20014;-67
2022/06/02 11:15:21;;;;;;;1.80;0.80;;;;;;;19.41;49.85;101617.41;7380223;19;20086;-70
2022/06/02 11:18:21;;;;;;;2.38;0.90;;;;;;;19.44;50.35;101622.41;7385615;19;20014;-66
2022/06/02 11:21:16;;;;;;;1.92;0.82;;;;;;;19.50;49.98;101611.81;7381173;19;20023;-66
2022/06/02 11:24:15;;;;;;;4.15;1.33;;;;;;;19.55;49.37;101616.59;7383894;19;20027;-69
2022/06/02 11:27:32;;;;;;;7.22;3.35;;;;;;;19.63;49.79;101611.91;7382972;19;20090;-69
2022/06/02 11:30:11;;;;;;;1.90;0.80;;;;;;;19.70;49.32;101608.47;7377588;19;20137;-69
2022/06/02 11:33:13;;;;;;;2.58;0.70;;;;;;;19.77;49.19;101612.84;7388040;19;20086;-69
2022/06/02 11:36:01;;;;;;;2.88;0.80;;;;;;;19.82;48.42;101606.91;7391788;19;20411;-66
2022/06/02 11:38:49;;;;;;;1.83;0.73;;;;;;;19.88;49.16;101600.81;7390193;19;20500;-68
2022/06/02 11:41:42;;;;;;;1.63;0.77;;;;;;;19.96;49.21;101600.69;7389733;19;20468;-69
2022/06/02 11:44:26;;;;;;;1.75;0.85;;;;;;;19.97;49.03;101607.66;7390802;19;20015;-67
2022/06/02 11:47:47;;;;;;;2.22;0.90;;;;;;;20.01;49.16;101604.38;7388165;19;20014;-68
2022/06/02 11:50:29;;;;;;;4.88;0.90;;;;;;;20.04;49.16;101595.16;7382947;19;20429;-69
2022/06/02 11:53:09;;;;;;;1.88;0.80;;;;;;;19.93;48.30;101593.84;7389525;19;20206;-69
2022/06/02 11:56:13;;;;;;;2.15;1.10;;;;;;;19.82;49.75;101591.72;7391238;19;20010;-67
2022/06/02 11:59:19;;;;;;;2.47;1.38;;;;;;;19.74;50.01;101589.22;7386840;19;20016;-69
2022/06/02 12:02:30;;;;;;;4.07;1.30;;;;;;;19.72;50.57;101572.53;7385025;19;20014;-68
2022/06/02 12:05:38;;;;;;;2.67;1.02;;;;;;;19.79;50.39;101565.41;7384523;19;20623;-69
2022/06/02 12:08:33;;;;;;;4.25;2.10;;;;;;;19.73;49.83;101579.53;7385796;19;20379;-68
2022/06/02 12:11:32;;;;;;;4.35;2.17;;;;;;;19.67;50.88;101569.63;7391938;19;20099;-67
2022/06/02 12:14:27;;;;;;;3.40;1.65;;;;;;;19.67;50.58;101569.63;7391860;19;20437;-67
2022/06/02 12:17:09;;;;;;;4.95;1.05;;;;;;;19.62;49.72;101572.06;7390175;19;20013;-70
2022/06/02 12:20:02;;;;;;;2.10;1.30;;;;;;;19.56;49.62;101559.47;7389941;19;20512;-68
2022/06/02 12:22:47;;;;;;;;;;;;;;;19.53;50.00;101562.53;7390838;19;20031;-68
2022/06/02 12:25:51;;;;;;;4.35;1.25;;;;;;;19.43;50.54;101554.81;7391456;19;20520;-68
2022/06/02 12:28:41;;;;;;;5.15;1.20;;;;;;;19.37;50.22;101555.59;7388599;19;20364;-69
2022/06/02 12:31:55;;;;;;;3.67;1.15;;;;;;;19.43;50.56;101554.00;7387473;19;20018;-70
2022/06/02 12:34:43;;;;;;;2.28;1.08;;;;;;;19.46;50.05;101564.31;7388222;19;20007;-68
2022/06/02 12:37:32;;;;;;;3.65;1.58;;;;;;;19.44;49.89;101559.19;7387250;19;20017;-67
2022/06/02 12:40:46;;;;;;;4.93;1.88;;;;;;;19.43;50.57;101559.34;7389721;19;20042;-69
2022/06/02 12:43:28;;;;;;;2.22;1.10;;;;;;;19.40;51.62;101549.06;7385533;19;20006;-70
2022/06/02 12:46:16;;;;;;;2.92;0.90;;;;;;;19.43;51.76;101543.31;7388920;19;20035;-69
2022/06/02 12:49:18;;;;;;;2.50;1.35;;;;;;;19.43;51.75;101554.81;7389297;19;20416;-68
2022/06/02 12:52:24;;;;;;;4.63;1.30;;;;;;;19.42;51.77;101549.66;7390886;19;20146;-68
2022/06/02 12:55:40;;;;;;;2.58;0.90;;;;;;;19.39;51.11;101544.72;7389780;19;20021;-67
2022/06/02 12:59:01;;;;;;;1.70;0.95;;;;;;;19.43;51.20;101551.34;7386264;19;20025;-67
2022/06/02 13:02:01;;;;;;;3.15;1.73;;;;;;;19.43;52.01;101548.66;7385987;19;20018;-68
2022/06/02 13:04:31;;;;;;;4.78;1.42;;;;;;;19.44;52.46;101536.97;7390586;19;20018;-69
2022/06/02 13:07:35;;;;;;;4.15;2.38;;;;;;;19.52;52.93;101544.84;7388458;19;20011;-69
2022/06/02 13:10:27;;;;;;;5.82;1.85;;;;;;;19.64;52.13;101537.97;7389093;19;20022;-66
2022/06/02 13:13:09;;;;;;;4.05;1.27;;;;;;;19.75;51.77;101534.78;7387044;19;20017;-69
2022/06/02 13:16:10;;;;;;;3.38;1.02;;;;;;;19.84;51.59;101538.09;7383156;19;20052;-70
2022/06/02 13:18:56;;;;;;;4.57;1.48;;;;;;;19.94;52.44;101535.91;7334495;19;20015;-67
2022/06/02 13:22:09;;;;;;;9.75;2.20;;;;;;;20.02;52.49;101533.06;7383577;19;20038;-70
2022/06/02 13:25:35;;;;;;;2.50;1.60;;;;;;;20.08;53.38;101542.97;7379134;19;20448;-68